Terminal Aerodrome Forecast
Issued by NWS Charleston, WV

Current Version | Previous Version | Graphics & Text | Print | Product List | Glossary On
Versions: 1 2 3 4 5 6 7 8 9 10 11 12 13 14 15 16 17 18 19 20 21 22 23 24 25 26 27 28
000
FTUS41 KRLX 212300
TAFEKN
TAF
KEKN 212328Z 2200/2224 00000KT P6SM OVC060
     FM220300 00000KT 6SM BR BKN030
     FM220600 00000KT 3SM BR BKN025
     FM221200 00000KT 1 1/2SM BR BKN010
     FM221400 VRB03KT 4SM BR BKN015
     FM221600 27004KT 6SM SHRA BR VCTS BKN020CB
     FM221700 29004KT 5SM SHRA BR VCTS BKN025CB
     FM222300 00000KT 5SM SHRA BR VCTS BKN025CB=

USA.gov is the U.S. government's official web portal to all federal, state and local government web resources and services.